Time;durP1;ratioP1;P1;durP2;ratioP2;P2;SDS_P1;SDS_P2;PMS_P1;PMS_P2;Temp;Humidity;BMP_temperature;BMP_pressure;BME280_temperature;BME280_humidity;BME280_pressure;Samples;Min_cycle;Max_cycle;Signal;HPM_P1;HPM_P2
2023/08/28 00:00:46;;;;;;;44.70;31.80;;;;;;;21.51;85.69;96447.05;104719;1256;100128;-81
2023/08/28 00:03:32;;;;;;;44.60;28.00;;;;;;;21.48;85.82;96448.85;104733;1256;96651;-81
2023/08/28 00:06:00;;;;;;;36.80;27.10;;;;;;;21.48;85.91;96448.90;104749;1259;98252;-81
2023/08/28 00:08:28;;;;;;;33.50;25.90;;;;;;;21.45;85.94;96450.98;104771;1271;101051;-81
2023/08/28 00:10:55;;;;;;;35.90;26.70;;;;;;;21.44;86.02;96460.55;104759;1269;102000;-80
2023/08/28 00:13:23;;;;;;;37.80;26.30;;;;;;;21.45;85.97;96470.09;104712;1262;99212;-80
2023/08/28 00:15:51;;;;;;;32.30;24.80;;;;;;;21.45;86.21;96471.68;104738;1259;96825;-81
2023/08/28 00:18:19;;;;;;;30.00;24.70;;;;;;;21.46;86.23;96470.63;104707;1258;97217;-82
2023/08/28 00:20:47;;;;;;;32.80;24.90;;;;;;;21.46;86.15;96474.35;104741;1259;110291;-81
2023/08/28 00:23:15;;;;;;;31.70;23.70;;;;;;;21.46;86.21;96484.61;104662;1269;100509;-81
2023/08/28 00:25:43;;;;;;;28.40;22.90;;;;;;;21.46;86.15;96485.77;104694;1272;99127;-81
2023/08/28 00:28:11;;;;;;;31.20;24.10;;;;;;;21.47;86.25;96494.27;104683;1261;96577;-80
2023/08/28 00:30:38;;;;;;;27.80;23.00;;;;;;;21.48;86.23;96506.56;104698;1260;98206;-81
2023/08/28 00:33:06;;;;;;;27.70;23.30;;;;;;;21.47;86.24;96509.20;104673;1261;101334;-81
2023/08/28 00:35:33;;;;;;;30.90;23.60;;;;;;;21.46;86.32;96509.98;104736;1258;100098;-81
2023/08/28 00:38:01;;;;;;;27.30;22.40;;;;;;;21.44;86.35;96513.09;104693;1261;98471;-81
2023/08/28 00:40:29;;;;;;;26.80;21.20;;;;;;;21.40;86.42;96508.54;104695;1261;97154;-81
2023/08/28 00:42:56;;;;;;;28.10;22.40;;;;;;;21.38;86.47;96508.70;104709;1262;97909;-80
2023/08/28 00:45:24;;;;;;;27.00;21.50;;;;;;;21.34;86.57;96508.40;104712;1262;100873;-80
2023/08/28 00:47:52;;;;;;;29.70;22.90;;;;;;;21.32;86.71;96510.29;104800;1270;101394;-80
2023/08/28 00:50:20;;;;;;;29.10;22.30;;;;;;;21.31;86.84;96514.48;104719;1261;99235;-79
2023/08/28 00:52:47;;;;;;;26.80;22.00;;;;;;;21.28;86.97;96512.98;104722;1261;97279;-80
2023/08/28 00:55:15;;;;;;;29.70;23.50;;;;;;;21.27;86.94;96518.94;104731;1261;97028;-80
2023/08/28 00:57:43;;;;;;;28.50;22.90;;;;;;;21.25;87.15;96521.36;104541;1262;101280;-80
2023/08/28 01:00:12;;;;;;;29.50;22.60;;;;;;;21.20;87.26;96521.91;104671;1269;101359;-80
2023/08/28 01:02:41;;;;;;;29.10;22.90;;;;;;;21.17;87.29;96525.71;104728;1268;98438;-79
2023/08/28 01:05:09;;;;;;;27.40;22.70;;;;;;;21.15;87.24;96531.66;104688;1260;97251;-79
2023/08/28 01:07:52;;;;;;;33.40;24.60;;;;;;;21.14;87.49;96540.13;104743;1260;97803;-81
2023/08/28 01:10:33;;;;;;;31.00;24.70;;;;;;;21.11;87.86;96540.36;104715;1269;100743;-82
2023/08/28 01:13:08;;;;;;;29.90;23.90;;;;;;;21.07;87.81;96534.67;104670;1261;100546;-81
2023/08/28 01:15:37;;;;;;;34.20;25.00;;;;;;;21.05;88.22;96541.38;104638;1260;99972;-82
2023/08/28 01:18:06;;;;;;;29.30;23.70;;;;;;;21.00;88.19;96547.25;104514;1265;97854;-82
2023/08/28 01:20:35;;;;;;;27.30;23.30;;;;;;;20.99;88.11;96552.15;104618;1269;97020;-81
2023/08/28 01:23:27;;;;;;;28.90;23.70;;;;;;;20.96;88.54;96554.77;104633;1263;101370;-82
2023/08/28 01:25:55;;;;;;;27.70;23.20;;;;;;;20.93;88.63;96559.30;104694;1260;101362;-76
2023/08/28 01:28:26;;;;;;;30.30;24.70;;;;;;;20.93;88.60;96559.20;104653;1257;98767;-76
2023/08/28 01:30:54;;;;;;;30.30;25.10;;;;;;;20.94;89.25;96560.27;104693;1278;96576;-80
2023/08/28 01:33:22;;;;;;;30.50;24.80;;;;;;;20.91;89.60;96562.67;104635;1257;97112;-80
2023/08/28 01:36:00;;;;;;;32.30;25.10;;;;;;;20.90;89.22;96563.46;104628;1272;109741;-81
2023/08/28 01:38:36;;;;;;;34.20;28.80;;;;;;;20.89;89.41;96558.94;104643;1260;101214;-81
2023/08/28 01:41:16;;;;;;;42.30;33.00;;;;;;;20.90;89.16;96559.85;104415;1277;100065;-81
2023/08/28 01:43:48;;;;;;;42.90;32.90;;;;;;;20.90;89.22;96566.59;104685;1256;97384;-81
2023/08/28 01:46:16;;;;;;;51.10;35.80;;;;;;;20.90;89.35;96574.43;104640;1260;96633;-81
2023/08/28 01:48:46;;;;;;;49.60;36.90;;;;;;;20.87;90.22;96577.63;104777;1260;102363;-81
2023/08/28 01:51:14;;;;;;;50.10;35.90;;;;;;;20.80;89.94;96576.94;104697;1256;101307;-81
2023/08/28 01:53:41;;;;;;;48.90;35.50;;;;;;;20.78;89.57;96579.98;104701;1269;99048;-81
2023/08/28 01:56:09;;;;;;;53.20;38.70;;;;;;;20.77;90.16;96580.92;104633;1260;96813;-80
2023/08/28 01:58:50;;;;;;;49.80;36.90;;;;;;;20.70;90.34;96578.08;104715;1259;97240;-80
2023/08/28 02:01:17;;;;;;;50.30;36.60;;;;;;;20.64;90.27;96576.64;104745;1256;178334;-80
2023/08/28 02:03:45;;;;;;;56.20;36.30;;;;;;;20.57;90.28;96579.30;104770;1269;101515;-81
2023/08/28 02:06:13;;;;;;;49.20;35.30;;;;;;;20.56;90.21;96582.92;104695;1255;99068;-80
2023/08/28 02:08:41;;;;;;;49.70;34.70;;;;;;;20.51;90.28;96579.16;104667;1258;96682;-81
2023/08/28 02:11:09;;;;;;;55.20;35.20;;;;;;;20.48;90.52;96580.30;104679;1266;96493;-81
2023/08/28 02:13:37;;;;;;;47.90;32.70;;;;;;;20.44;90.42;96583.41;104671;1261;102222;-82
2023/08/28 02:16:05;;;;;;;47.20;32.30;;;;;;;20.42;89.85;96586.33;104730;1259;100055;-81
2023/08/28 02:18:32;;;;;;;47.10;31.50;;;;;;;20.39;89.89;96590.77;104552;1256;99371;-80
2023/08/28 02:21:00;;;;;;;43.70;29.90;;;;;;;20.37;89.70;96589.48;104752;1260;97623;-81
2023/08/28 02:23:28;;;;;;;41.40;29.40;;;;;;;20.37;89.83;96588.35;104771;1261;97250;-81
2023/08/28 02:25:56;;;;;;;39.90;27.60;;;;;;;20.33;89.83;96584.14;104679;1263;100893;-81
2023/08/28 02:28:25;;;;;;;33.60;24.10;;;;;;;20.30;89.74;96589.48;104673;1261;101512;-82
2023/08/28 02:30:53;;;;;;;33.40;23.60;;;;;;;20.27;89.73;96589.70;104664;1261;97799;-80
2023/08/28 02:33:20;;;;;;;32.90;22.30;;;;;;;20.24;89.61;96594.71;104663;1269;97319;-79
2023/08/28 02:35:48;;;;;;;31.10;21.80;;;;;;;20.21;89.48;96606.64;104633;1262;97117;-79
2023/08/28 02:38:20;;;;;;;29.50;21.00;;;;;;;20.18;89.23;96613.85;104668;1260;100852;-79
2023/08/28 02:40:47;;;;;;;30.60;19.50;;;;;;;20.15;89.08;96613.58;104511;1264;101343;-79
2023/08/28 02:43:15;;;;;;;31.40;18.20;;;;;;;20.11;88.78;96613.50;104647;1271;99947;-80
2023/08/28 02:45:43;;;;;;;24.30;17.30;;;;;;;20.10;88.62;96611.65;104679;1262;97868;-81
2023/08/28 02:48:10;;;;;;;24.50;16.80;;;;;;;20.08;88.55;96615.16;104680;1260;97082;-81
2023/08/28 02:50:38;;;;;;;21.40;16.10;;;;;;;20.05;88.32;96617.16;104639;1260;101680;-80
2023/08/28 02:53:06;;;;;;;22.40;16.30;;;;;;;20.01;88.11;96615.48;104604;1260;100317;-81
2023/08/28 02:55:42;;;;;;;18.30;15.00;;;;;;;19.94;88.11;96611.22;104626;1262;98989;-80
2023/08/28 02:58:11;;;;;;;21.00;13.90;;;;;;;19.89;88.39;96611.33;104726;1262;97808;-81
2023/08/28 03:00:41;;;;;;;15.80;11.80;;;;;;;19.81;88.28;96616.78;104785;1256;97802;-78
2023/08/28 03:03:09;;;;;;;12.20;10.20;;;;;;;19.75;88.06;96625.42;104629;1271;102490;-81
2023/08/28 03:05:37;;;;;;;12.80;9.00;;;;;;;19.71;87.90;96629.19;104675;1271;100145;-80
2023/08/28 03:08:05;;;;;;;12.40;8.00;;;;;;;19.65;88.00;96630.29;104721;1269;99941;-80
2023/08/28 03:10:34;;;;;;;8.60;6.70;;;;;;;19.59;87.92;96639.20;104790;1259;97792;-81
2023/08/28 03:13:02;;;;;;;6.20;5.30;;;;;;;19.54;87.53;96634.72;104783;1259;97857;-81
2023/08/28 03:15:32;;;;;;;7.10;4.90;;;;;;;19.48;87.23;96638.84;104812;1259;102218;-81
2023/08/28 03:18:00;;;;;;;6.10;4.30;;;;;;;19.42;87.18;96641.85;104615;1274;101766;-81
2023/08/28 03:20:27;;;;;;;4.80;4.30;;;;;;;19.34;87.15;96647.98;104714;1271;99298;-81
2023/08/28 03:22:56;;;;;;;6.40;4.50;;;;;;;19.26;86.93;96650.34;104735;1258;97208;-81
2023/08/28 03:25:24;;;;;;;6.10;4.90;;;;;;;19.21;87.18;96652.89;104660;1270;97003;-80
2023/08/28 03:27:51;;;;;;;6.00;5.10;;;;;;;19.12;87.21;96655.58;104765;1262;108734;-81
2023/08/28 03:30:21;;;;;;;5.80;5.00;;;;;;;19.05;87.33;96650.44;104716;1260;101338;-81
2023/08/28 03:32:49;;;;;;;6.70;4.90;;;;;;;19.00;87.37;96648.70;104764;1268;99003;-80
2023/08/28 03:35:16;;;;;;;4.80;4.40;;;;;;;18.93;87.23;96643.95;104734;1269;97492;-80
2023/08/28 03:37:44;;;;;;;4.80;4.40;;;;;;;18.86;87.26;96654.10;104767;1258;97106;-80
2023/08/28 03:40:12;;;;;;;5.80;4.70;;;;;;;18.81;86.96;96659.99;104773;1259;102113;-79
2023/08/28 03:42:40;;;;;;;4.80;4.40;;;;;;;18.77;87.05;96662.46;104766;1259;100405;-83
2023/08/28 03:45:08;;;;;;;7.80;4.90;;;;;;;18.75;86.91;96674.88;104759;1268;100161;-82
2023/08/28 03:47:36;;;;;;;4.60;4.10;;;;;;;18.71;87.26;96691.52;104712;1271;97549;-84
2023/08/28 03:50:03;;;;;;;4.60;3.60;;;;;;;18.66;87.66;96686.08;104758;1255;97078;-83
2023/08/28 03:52:31;;;;;;;4.80;3.10;;;;;;;18.60;88.04;96680.02;104797;1260;102317;-83
2023/08/28 03:54:59;;;;;;;7.90;3.90;;;;;;;18.55;87.78;96685.45;104792;1258;100325;-81
2023/08/28 03:57:27;;;;;;;5.80;4.00;;;;;;;18.56;87.66;96680.90;104786;1260;99906;-82
2023/08/28 03:59:56;;;;;;;3.50;3.20;;;;;;;18.56;87.74;96677.03;104761;1258;97003;-82
2023/08/28 04:02:23;;;;;;;4.10;3.20;;;;;;;18.58;87.61;96681.91;104769;1260;97026;-76
2023/08/28 04:04:51;;;;;;;4.70;3.60;;;;;;;18.60;87.39;96676.27;104765;1268;102275;-76
2023/08/28 04:07:26;;;;;;;3.70;3.40;;;;;;;18.59;87.34;96676.27;104769;1263;100545;-76
2023/08/28 04:09:54;;;;;;;3.60;3.30;;;;;;;18.60;87.16;96683.58;104685;1277;100095;-76
2023/08/28 04:12:22;;;;;;;4.60;3.10;;;;;;;18.60;87.00;96681.90;104759;1267;97889;-76
2023/08/28 04:14:49;;;;;;;8.00;3.90;;;;;;;18.61;86.98;96683.41;104752;1260;98485;-76
2023/08/28 04:17:17;;;;;;;5.80;3.20;;;;;;;18.60;87.07;96685.22;104750;1270;102227;-77
2023/08/28 04:19:45;;;;;;;3.20;2.80;;;;;;;18.59;86.80;96685.58;104708;1270;101740;-77
2023/08/28 04:22:12;;;;;;;4.50;2.60;;;;;;;18.59;87.01;96681.52;104586;1272;99114;-77
2023/08/28 04:24:40;;;;;;;4.70;3.10;;;;;;;18.58;86.79;96671.73;104693;1268;96583;-76
2023/08/28 04:27:08;;;;;;;7.30;3.30;;;;;;;18.59;86.76;96656.93;104770;1267;97024;-76
2023/08/28 04:29:36;;;;;;;6.40;2.90;;;;;;;18.58;86.80;96639.06;104679;1269;102391;-78
2023/08/28 04:32:04;;;;;;;4.60;3.40;;;;;;;18.54;86.71;96662.27;104755;1275;101363;-81
2023/08/28 04:34:32;;;;;;;5.80;3.10;;;;;;;18.54;86.84;96686.48;104777;1256;98503;-82
2023/08/28 04:36:59;;;;;;;3.80;3.20;;;;;;;18.54;86.82;96687.58;104778;1259;97878;-82
2023/08/28 04:39:27;;;;;;;5.00;3.20;;;;;;;18.55;86.82;96701.46;104806;1259;97096;-78
2023/08/28 04:41:55;;;;;;;5.00;2.90;;;;;;;18.56;86.57;96695.39;104748;1260;100812;-81
2023/08/28 04:44:23;;;;;;;5.00;3.30;;;;;;;18.57;86.54;96689.61;104647;1271;100043;-81
2023/08/28 04:46:50;;;;;;;3.70;3.10;;;;;;;18.59;86.48;96693.59;104727;1273;99314;-81
2023/08/28 04:49:18;;;;;;;5.70;3.10;;;;;;;18.60;86.42;96702.55;104781;1270;96825;-81
2023/08/28 04:51:46;;;;;;;2.90;2.60;;;;;;;18.58;86.27;96710.94;104803;1261;97519;-80
2023/08/28 04:54:13;;;;;;;3.30;3.00;;;;;;;18.55;86.12;96710.27;104728;1261;101301;-81
2023/08/28 04:56:41;;;;;;;6.20;3.10;;;;;;;18.54;86.22;96699.16;104793;1258;100588;-81
2023/08/28 04:59:09;;;;;;;5.50;3.40;;;;;;;18.53;86.31;96685.77;104743;1261;99999;-81
2023/08/28 05:01:37;;;;;;;4.50;3.50;;;;;;;18.54;86.23;96686.38;104678;1269;97240;-81
2023/08/28 05:04:06;;;;;;;5.40;2.90;;;;;;;18.55;86.22;96690.41;104789;1266;97044;-81
2023/08/28 05:06:34;;;;;;;3.60;3.20;;;;;;;18.54;86.28;96683.42;104691;1278;101254;-80
2023/08/28 05:09:01;;;;;;;3.90;2.80;;;;;;;18.53;86.15;96675.11;104704;1270;99955;-81
2023/08/28 05:11:29;;;;;;;3.40;2.50;;;;;;;18.50;85.89;96677.73;104730;1273;99912;-81
2023/08/28 05:13:57;;;;;;;5.50;3.00;;;;;;;18.48;86.15;96681.20;104748;1269;96706;-81
2023/08/28 05:16:25;;;;;;;4.60;3.30;;;;;;;18.46;86.19;96679.70;104720;1267;96998;-79
2023/08/28 05:18:53;;;;;;;3.20;2.90;;;;;;;18.46;86.14;96678.81;104799;1262;101236;-78
2023/08/28 05:21:20;;;;;;;3.90;3.10;;;;;;;18.46;86.13;96679.03;104720;1272;110055;-79
2023/08/28 05:23:48;;;;;;;4.00;3.30;;;;;;;18.46;86.15;96683.73;104757;1258;100030;-78
2023/08/28 05:26:16;;;;;;;3.80;3.50;;;;;;;18.47;86.11;96680.28;104691;1260;97347;-79
2023/08/28 05:28:45;;;;;;;5.10;3.40;;;;;;;18.47;86.07;96677.05;104779;1256;96729;-79
2023/08/28 05:31:12;;;;;;;5.20;3.60;;;;;;;18.49;86.26;96682.50;104545;1262;101442;-78
2023/08/28 05:33:40;;;;;;;10.30;3.60;;;;;;;18.51;86.32;96683.70;104711;1273;101496;-79
2023/08/28 05:36:08;;;;;;;3.40;3.10;;;;;;;18.49;86.27;96676.70;104777;1261;98511;-81
2023/08/28 05:38:35;;;;;;;3.90;2.60;;;;;;;18.46;86.46;96678.15;104674;1261;96578;-81
2023/08/28 05:41:03;;;;;;;3.60;3.30;;;;;;;18.47;86.50;96678.84;104722;1269;98175;-81
2023/08/28 05:43:31;;;;;;;5.00;3.10;;;;;;;18.52;86.67;96678.77;104707;1261;101316;-81
2023/08/28 05:45:58;;;;;;;3.90;3.50;;;;;;;18.56;86.61;96681.23;104741;1270;101711;-81
2023/08/28 05:48:26;;;;;;;7.80;4.30;;;;;;;18.58;86.51;96682.02;104761;1260;99991;-81
2023/08/28 05:50:54;;;;;;;4.70;4.30;;;;;;;18.57;86.64;96679.72;104712;1258;96779;-81
2023/08/28 05:53:22;;;;;;;5.50;4.50;;;;;;;18.54;86.67;96675.00;104775;1260;96836;-81
2023/08/28 05:55:49;;;;;;;4.50;4.10;;;;;;;18.53;86.33;96677.58;104766;1268;101251;-77
2023/08/28 05:58:17;;;;;;;4.70;4.00;;;;;;;18.55;86.31;96675.44;104738;1269;100693;-77
2023/08/28 06:00:45;;;;;;;6.70;4.60;;;;;;;18.57;86.33;96673.65;104791;1262;99807;-81
2023/08/28 06:03:13;;;;;;;4.70;4.20;;;;;;;18.60;86.32;96675.11;104717;1260;96669;-81
2023/08/28 06:05:41;;;;;;;5.60;4.40;;;;;;;18.62;86.31;96674.05;104706;1261;97120;-82
2023/08/28 06:08:09;;;;;;;7.20;4.80;;;;;;;18.63;86.30;96668.16;104771;1259;101294;-81
2023/08/28 06:10:40;;;;;;;9.30;4.70;;;;;;;18.63;86.15;96667.06;104770;1269;108593;-81
2023/08/28 06:13:08;;;;;;;6.20;4.40;;;;;;;18.64;86.28;96665.20;104674;1260;97469;-81
2023/08/28 06:15:35;;;;;;;8.60;4.00;;;;;;;18.67;86.14;96663.77;104724;1271;96727;-82
2023/08/28 06:18:04;;;;;;;4.20;3.90;;;;;;;18.69;86.09;96666.55;104745;1261;98075;-81
2023/08/28 06:20:32;;;;;;;6.50;4.20;;;;;;;18.73;85.96;96672.20;104638;1263;109662;-81
2023/08/28 06:23:00;;;;;;;6.30;4.50;;;;;;;18.75;85.92;96672.58;104503;1263;100412;-81
2023/08/28 06:25:28;;;;;;;6.80;4.00;;;;;;;18.73;85.99;96673.25;104759;1269;99987;-80
2023/08/28 06:27:55;;;;;;;5.60;4.50;;;;;;;18.68;85.83;96669.95;104747;1261;96695;-82
2023/08/28 06:30:23;;;;;;;6.80;4.10;;;;;;;18.68;85.76;96666.73;104790;1268;97087;-77
2023/08/28 06:32:51;;;;;;;9.10;4.60;;;;;;;18.69;85.76;96659.94;104802;1269;102227;-80
2023/08/28 06:35:19;;;;;;;5.60;4.80;;;;;;;18.66;85.90;96655.03;104723;1260;99265;-80
2023/08/28 06:37:47;;;;;;;5.10;4.50;;;;;;;18.67;86.04;96655.80;104754;1259;99308;-81
2023/08/28 06:40:15;;;;;;;5.30;4.70;;;;;;;18.68;86.28;96652.35;104541;1264;97403;-81
2023/08/28 06:42:43;;;;;;;5.10;4.20;;;;;;;18.66;86.23;96650.43;104791;1260;97018;-81
2023/08/28 06:45:11;;;;;;;5.40;4.50;;;;;;;18.71;86.19;96646.48;104889;1262;110755;-81
2023/08/28 06:47:38;;;;;;;5.30;4.80;;;;;;;18.75;86.33;96636.82;104708;1269;101402;-81
2023/08/28 06:50:07;;;;;;;5.20;4.30;;;;;;;18.74;86.33;96632.77;104818;1271;98479;-81
2023/08/28 06:52:36;;;;;;;6.30;4.60;;;;;;;18.76;86.46;96632.23;104693;1277;97494;-78
2023/08/28 06:55:04;;;;;;;5.80;4.60;;;;;;;18.81;86.55;96632.59;104763;1268;97988;-78
2023/08/28 06:57:32;;;;;;;5.10;4.60;;;;;;;18.86;86.53;96630.42;104610;1262;101762;-78
2023/08/28 07:00:00;;;;;;;6.50;4.60;;;;;;;18.90;86.51;96624.77;104747;1259;100387;-78
2023/08/28 07:02:31;;;;;;;5.90;4.60;;;;;;;18.95;86.35;96626.48;104872;1260;100025;-80
2023/08/28 07:04:59;;;;;;;7.10;4.30;;;;;;;19.00;86.09;96628.30;104748;1270;98187;-80
2023/08/28 07:07:26;;;;;;;4.60;4.20;;;;;;;19.03;86.09;96627.36;104840;1271;98451;-80
2023/08/28 07:09:54;;;;;;;5.80;3.40;;;;;;;19.05;86.14;96621.99;104807;1269;102588;-80
2023/08/28 07:12:22;;;;;;;5.30;3.70;;;;;;;19.09;86.15;96620.64;104778;1260;99943;-81
2023/08/28 07:15:12;;;;;;;6.30;3.90;;;;;;;19.15;86.12;96620.83;104789;1269;106515;-81
2023/08/28 07:17:39;;;;;;;4.00;3.60;;;;;;;19.19;86.12;96622.00;104773;1255;97957;-78
2023/08/28 07:20:07;;;;;;;5.80;4.10;;;;;;;19.24;85.93;96621.68;104846;1257;99684;-78
2023/08/28 07:22:35;;;;;;;4.90;3.60;;;;;;;19.27;86.03;96621.88;104740;1260;102678;-78
2023/08/28 07:25:04;;;;;;;5.20;4.10;;;;;;;19.26;86.02;96614.83;104800;1260;101915;-78
2023/08/28 07:27:31;;;;;;;5.50;4.70;;;;;;;19.30;85.82;96615.63;104720;1270;108304;-78
2023/08/28 07:29:59;;;;;;;4.80;4.20;;;;;;;19.34;85.96;96615.09;104551;1269;97972;-78
2023/08/28 07:32:27;;;;;;;4.90;4.00;;;;;;;19.40;85.96;96616.02;104755;1261;100877;-81
2023/08/28 07:34:55;;;;;;;4.80;4.00;;;;;;;19.46;85.90;96617.50;104732;1262;103612;-80
2023/08/28 07:37:23;;;;;;;7.20;4.30;;;;;;;19.51;85.74;96619.58;104580;1273;100577;-81
2023/08/28 07:39:53;;;;;;;5.10;3.80;;;;;;;19.55;85.51;96620.03;104736;1269;98876;-81
2023/08/28 07:42:21;;;;;;;5.10;4.20;;;;;;;19.58;85.49;96618.08;104777;1277;97920;-80
2023/08/28 07:44:49;;;;;;;6.90;4.70;;;;;;;19.61;85.30;96617.02;104740;1260;98394;-81
2023/08/28 07:47:17;;;;;;;6.90;4.00;;;;;;;19.64;85.16;96616.23;104729;1260;102355;-78
2023/08/28 07:49:44;;;;;;;5.10;3.90;;;;;;;19.68;85.22;96618.33;104783;1259;100299;-78
2023/08/28 07:52:12;;;;;;;4.50;3.40;;;;;;;19.71;84.97;96616.80;104838;1258;99247;-78
2023/08/28 07:54:40;;;;;;;5.40;3.00;;;;;;;19.72;84.70;96614.88;104759;1271;97917;-78
2023/08/28 07:57:08;;;;;;;5.60;3.80;;;;;;;19.74;84.57;96615.20;104866;1259;98389;-78
2023/08/28 07:59:36;;;;;;;5.40;3.50;;;;;;;19.77;84.21;96614.90;104821;1259;103515;-78
2023/08/28 08:02:05;;;;;;;5.60;3.20;;;;;;;19.78;84.37;96616.22;104707;1260;100367;-81
2023/08/28 08:04:33;;;;;;;4.30;3.60;;;;;;;19.80;84.64;96616.79;104807;1260;100194;-80
2023/08/28 08:07:02;;;;;;;4.70;3.40;;;;;;;19.83;84.74;96617.35;104734;1269;97906;-81
2023/08/28 08:09:30;;;;;;;4.90;3.00;;;;;;;19.84;84.63;96616.95;104805;1259;98437;-81
2023/08/28 08:11:57;;;;;;;3.80;3.40;;;;;;;19.86;84.46;96617.92;104759;1258;102660;-80
2023/08/28 08:14:25;;;;;;;4.60;2.80;;;;;;;19.88;84.39;96613.52;104755;1260;101351;-81
2023/08/28 08:16:53;;;;;;;6.00;2.90;;;;;;;19.92;84.50;96610.47;104772;1268;99167;-78
2023/08/28 08:19:20;;;;;;;3.20;2.70;;;;;;;19.93;84.15;96608.27;104799;1260;97882;-78
2023/08/28 08:21:48;;;;;;;3.30;3.00;;;;;;;19.94;84.08;96610.88;104767;1269;97832;-78
2023/08/28 08:24:15;;;;;;;5.40;3.30;;;;;;;19.99;83.92;96612.86;104817;1259;102765;-78
2023/08/28 08:26:43;;;;;;;5.10;2.60;;;;;;;20.04;83.87;96618.95;104646;1260;100823;-78
2023/08/28 08:29:11;;;;;;;6.80;2.80;;;;;;;20.07;83.80;96620.39;104532;1260;99992;-81
2023/08/28 08:31:38;;;;;;;4.50;2.90;;;;;;;20.10;83.51;96617.72;104650;1260;98026;-80
2023/08/28 08:34:06;;;;;;;6.00;2.80;;;;;;;20.06;82.96;96612.12;104698;1260;99077;-81
2023/08/28 08:36:34;;;;;;;3.10;2.70;;;;;;;20.00;82.54;96610.61;104684;1257;103469;-81
2023/08/28 08:39:03;;;;;;;6.00;2.70;;;;;;;20.01;83.00;96607.04;104683;1269;100365;-81
2023/08/28 08:41:31;;;;;;;3.70;3.00;;;;;;;20.03;83.06;96603.85;104647;1260;100063;-81
2023/08/28 08:43:59;;;;;;;5.30;3.00;;;;;;;20.02;83.04;96605.16;104596;1260;98024;-81
2023/08/28 08:46:27;;;;;;;5.10;2.80;;;;;;;20.02;83.14;96603.52;104668;1260;98002;-81
2023/08/28 08:48:57;;;;;;;5.00;3.10;;;;;;;20.06;83.16;96601.55;104597;1261;103612;-81
2023/08/28 08:51:30;;;;;;;4.00;2.80;;;;;;;20.09;82.98;96594.73;104697;1260;101736;-80
2023/08/28 08:54:13;;;;;;;4.60;3.20;;;;;;;20.08;82.55;96593.48;104487;1274;98945;-79
2023/08/28 08:56:42;;;;;;;5.20;3.30;;;;;;;20.07;82.67;96592.93;104607;1260;98004;-80
2023/08/28 08:59:10;;;;;;;3.70;3.40;;;;;;;20.06;82.37;96592.94;104557;1264;99263;-80
2023/08/28 09:01:38;;;;;;;3.70;3.40;;;;;;;20.06;82.38;96588.50;104752;1262;102588;-80
2023/08/28 09:04:08;;;;;;;4.10;3.10;;;;;;;20.08;82.43;96594.46;104793;1258;100388;-80
2023/08/28 09:06:38;;;;;;;6.10;3.60;;;;;;;20.11;82.57;96593.61;104814;1268;100085;-78
2023/08/28 09:09:08;;;;;;;4.40;3.30;;;;;;;20.15;82.50;96591.92;104745;1255;98099;-78
2023/08/28 09:11:37;;;;;;;3.60;3.30;;;;;;;20.17;82.28;96586.08;104788;1258;99250;-78
2023/08/28 09:14:05;;;;;;;5.50;3.10;;;;;;;20.16;82.41;96583.30;104769;1269;102962;-78
2023/08/28 09:16:36;;;;;;;5.80;3.50;;;;;;;20.17;82.12;96582.05;104829;1256;111136;-79
2023/08/28 09:19:05;;;;;;;3.70;3.40;;;;;;;20.14;82.19;96583.48;105064;1256;98557;-80
2023/08/28 09:21:36;;;;;;;4.00;3.40;;;;;;;20.16;82.10;96577.88;104691;1260;97981;-78
2023/08/28 09:24:09;;;;;;;6.20;3.30;;;;;;;20.18;82.04;96576.31;104473;1264;98333;-77
2023/08/28 09:26:51;;;;;;;4.20;3.40;;;;;;;20.16;81.78;96566.82;104624;1262;103951;-82
2023/08/28 09:29:23;;;;;;;6.80;3.50;;;;;;;20.18;82.08;96564.98;104595;1275;101508;-83
2023/08/28 09:31:52;;;;;;;3.50;3.20;;;;;;;20.22;82.01;96562.96;104565;1278;109486;-78
2023/08/28 09:34:21;;;;;;;4.50;3.40;;;;;;;20.26;82.12;96564.77;104857;1258;98035;-78
2023/08/28 09:36:49;;;;;;;7.40;3.70;;;;;;;20.29;81.97;96563.30;104697;1261;98348;-78
2023/08/28 09:39:16;;;;;;;6.00;3.90;;;;;;;20.31;81.89;96560.09;104650;1260;102344;-78
2023/08/28 09:41:45;;;;;;;4.60;3.80;;;;;;;20.36;81.77;96562.85;104664;1260;100127;-78
2023/08/28 09:44:16;;;;;;;4.50;3.60;;;;;;;20.36;81.29;96565.70;104693;1261;100061;-78
2023/08/28 09:46:45;;;;;;;4.00;3.60;;;;;;;20.36;81.50;96560.33;104809;1255;99297;-81
2023/08/28 09:49:14;;;;;;;5.40;3.90;;;;;;;20.38;81.34;96554.89;104766;1270;99028;-81
2023/08/28 09:51:43;;;;;;;6.40;4.20;;;;;;;20.36;81.36;96548.99;104736;1256;101745;-82
2023/08/28 09:54:13;;;;;;;5.40;4.00;;;;;;;20.36;81.24;96540.17;104746;1269;101780;-83
2023/08/28 09:56:42;;;;;;;5.20;4.60;;;;;;;20.33;80.97;96543.90;104588;1263;99066;-82
2023/08/28 09:59:15;;;;;;;4.80;4.40;;;;;;;20.28;80.76;96551.54;104701;1260;99263;-82
2023/08/28 10:01:42;;;;;;;4.80;4.40;;;;;;;20.24;80.74;96544.69;104674;1264;99570;-81
2023/08/28 10:04:13;;;;;;;3.90;3.60;;;;;;;20.22;81.01;96547.45;104591;1271;103463;-80
2023/08/28 10:06:49;;;;;;;5.20;3.80;;;;;;;20.21;80.89;96548.43;104553;1279;100217;-81
2023/08/28 10:09:21;;;;;;;6.10;3.80;;;;;;;20.19;80.90;96549.73;104473;1257;100179;-81
2023/08/28 10:11:51;;;;;;;;;;;;;;;20.19;81.27;96545.99;104585;1260;98079;-81
2023/08/28 10:14:21;;;;;;;4.20;3.80;;;;;;;20.22;81.51;96547.39;104536;1264;97890;-81
2023/08/28 10:16:58;;;;;;;3.80;3.40;;;;;;;20.27;81.62;96545.85;104594;1262;102740;-81
2023/08/28 10:19:33;;;;;;;5.20;3.50;;;;;;;20.29;81.16;96541.04;104507;1260;100538;-81
2023/08/28 10:22:03;;;;;;;4.80;3.20;;;;;;;20.28;80.84;96537.23;104559;1264;98296;-81
2023/08/28 10:24:32;;;;;;;4.50;3.20;;;;;;;20.27;81.00;96537.25;104611;1256;98014;-80
2023/08/28 10:27:01;;;;;;;3.60;3.00;;;;;;;20.26;80.83;96535.45;104602;1271;99756;-82
2023/08/28 10:29:31;;;;;;;3.30;2.80;;;;;;;20.25;80.88;96535.63;104560;1280;102693;-81
2023/08/28 10:32:00;;;;;;;2.80;2.50;;;;;;;20.28;81.06;96539.48;104551;1280;100327;-81
2023/08/28 10:34:29;;;;;;;3.00;2.70;;;;;;;20.31;81.09;96536.40;104581;1262;107271;-80
2023/08/28 10:37:00;;;;;;;2.80;2.50;;;;;;;20.32;80.83;96533.10;104511;1256;97975;-81
2023/08/28 10:39:29;;;;;;;2.40;2.20;;;;;;;20.31;80.72;96531.09;104388;1277;98454;-81
2023/08/28 10:41:57;;;;;;;2.80;2.50;;;;;;;20.31;80.65;96532.02;104875;1258;103650;-81
2023/08/28 10:44:27;;;;;;;2.70;2.20;;;;;;;20.35;80.94;96531.73;104644;1263;100291;-82
2023/08/28 10:46:56;;;;;;;3.10;2.50;;;;;;;20.38;81.03;96531.75;104842;1270;99903;-83
2023/08/28 10:49:24;;;;;;;2.40;2.20;;;;;;;20.41;80.93;96527.37;104673;1260;97939;-82
2023/08/28 10:52:10;;;;;;;2.10;1.90;;;;;;;20.41;80.71;96528.20;104832;1261;98496;-83
2023/08/28 10:54:39;;;;;;;3.60;1.90;;;;;;;20.42;80.77;96523.58;104743;1256;103632;-83
2023/08/28 10:57:11;;;;;;;2.30;2.00;;;;;;;20.46;80.82;96522.10;104697;1259;100018;-84
2023/08/28 10:59:46;;;;;;;2.10;1.90;;;;;;;20.45;80.66;96520.85;104677;1271;100140;-84
2023/08/28 11:02:14;;;;;;;3.20;1.80;;;;;;;20.44;80.69;96523.27;104741;1270;97938;-83
2023/08/28 11:04:42;;;;;;;3.20;1.60;;;;;;;20.41;80.36;96523.64;104726;1258;98524;-79
2023/08/28 11:07:21;;;;;;;1.60;1.50;;;;;;;20.40;80.39;96524.56;104779;1260;104036;-79
2023/08/28 11:10:15;;;;;;;2.00;1.50;;;;;;;20.41;80.66;96519.30;104872;1254;100410;-79
2023/08/28 11:13:11;;;;;;;1.90;1.70;;;;;;;20.39;80.36;96520.61;104935;1254;100100;-80
2023/08/28 11:15:43;;;;;;;1.60;1.40;;;;;;;20.36;80.33;96518.89;104851;1255;97968;-84
2023/08/28 11:18:19;;;;;;;1.60;1.50;;;;;;;20.34;80.17;96525.20;104768;1258;98599;-84
2023/08/28 11:21:07;;;;;;;2.50;1.50;;;;;;;20.34;80.40;96523.05;104746;1257;103658;-79
2023/08/28 11:23:43;;;;;;;2.90;1.70;;;;;;;20.34;80.28;96522.46;104783;1256;100203;-81
2023/08/28 11:26:16;;;;;;;2.90;1.70;;;;;;;20.34;80.47;96519.88;104785;1269;98416;-82